Terminal Aerodrome Forecast
Issued by NWS

Home | Current Version | Previous Version | Graphics & Text | Print | Product List | Glossary On
Versions: 1 2 3 4 5 6 7 8 9 10 11 12 13 14 15 16 17 18 19 20 21
879
FTUS43 KMPX 292002 AAA
TAFRWF
TAF AMD
KRWF 292002Z 2920/3018 06008KT P6SM BKN040
     FM300200 10007KT P6SM SCT250
     FM301200 06012G20KT P6SM BKN250
     FM301500 07019G30KT P6SM BKN200=

USA.gov is the U.S. government's official web portal to all federal, state and local government web resources and services.